Time;durP1;ratioP1;P1;durP2;ratioP2;P2;SDS_P1;SDS_P2;PMS_P1;PMS_P2;Temp;Humidity;BMP_temperature;BMP_pressure;BME280_temperature;BME280_humidity;BME280_pressure;Samples;Min_cycle;Max_cycle;Signal;HPM_P1;HPM_P2
2022/04/29 00:00:18;;;;;;;2.63;1.50;;;13.20;95.10;;;;;;5063959;28;20507;-69
2022/04/29 00:02:45;;;;;;;4.22;1.55;;;13.20;94.80;;;;;;5063616;28;20063;-69
2022/04/29 00:05:11;;;;;;;4.70;1.88;;;13.10;95.30;;;;;;5063624;28;20044;-69
2022/04/29 00:07:39;;;;;;;2.22;1.67;;;13.30;94.70;;;;;;5063039;28;20060;-69
2022/04/29 00:10:08;;;;;;;3.15;1.30;;;13.40;94.20;;;;;;5065071;28;20045;-69
2022/04/29 00:12:35;;;;;;;2.33;1.60;;;13.50;94.00;;;;;;5064203;28;20032;-69
2022/04/29 00:15:01;;;;;;;2.38;1.83;;;13.40;95.40;;;;;;5063173;28;20110;-69
2022/04/29 00:17:27;;;;;;;2.22;1.30;;;13.30;95.60;;;;;;5064821;28;20512;-69
2022/04/29 00:19:53;;;;;;;1.52;1.33;;;13.20;94.70;;;;;;5064819;28;20095;-69
2022/04/29 00:22:19;;;;;;;2.13;1.30;;;13.30;95.30;;;;;;5063327;28;20547;-70
2022/04/29 00:24:44;;;;;;;3.80;1.48;;;13.10;94.80;;;;;;5065442;28;20040;-70
2022/04/29 00:27:10;;;;;;;1.73;1.48;;;13.00;95.10;;;;;;5064572;28;20528;-69
2022/04/29 00:29:36;;;;;;;4.35;1.70;;;13.00;94.90;;;;;;5069564;28;20054;-69
2022/04/29 00:32:02;;;;;;;1.52;1.23;;;13.00;94.60;;;;;;5062894;28;20041;-69
2022/04/29 00:34:28;;;;;;;1.98;1.50;;;13.20;94.30;;;;;;5064430;28;20068;-69
2022/04/29 00:36:53;;;;;;;2.20;1.20;;;13.20;94.40;;;;;;5064253;28;20126;-69
2022/04/29 00:39:19;;;;;;;3.05;1.30;;;13.20;94.50;;;;;;5063053;28;20068;-69
2022/04/29 00:41:45;;;;;;;1.95;1.58;;;13.10;95.40;;;;;;5065125;28;20036;-69
2022/04/29 00:44:11;;;;;;;2.47;1.10;;;13.00;94.80;;;;;;5063920;28;20475;-69
2022/04/29 00:46:40;;;;;;;1.77;1.58;;;12.90;94.70;;;;;;5062990;28;20052;-69
2022/04/29 00:49:08;;;;;;;3.60;1.40;;;13.00;94.90;;;;;;5063145;28;20447;-69
2022/04/29 00:51:34;;;;;;;2.03;1.42;;;12.90;95.00;;;;;;5063243;28;20044;-69
2022/04/29 00:54:03;;;;;;;3.55;1.60;;;12.90;94.30;;;;;;5065065;28;20044;-69
2022/04/29 00:56:31;;;;;;;3.15;1.60;;;12.90;94.40;;;;;;5063407;28;20060;-70
2022/04/29 00:59:24;;;;;;;2.33;1.60;;;13.10;94.50;;;;;;5068275;28;20844;-70
2022/04/29 01:01:51;;;;;;;5.72;1.50;;;12.80;94.50;;;;;;5066068;28;20044;-70
2022/04/29 01:04:30;;;;;;;1.65;1.25;;;12.80;94.70;;;;;;5064504;28;20045;-69
2022/04/29 01:06:57;;;;;;;1.75;1.60;;;12.90;94.50;;;;;;5064285;28;20106;-69
2022/04/29 01:09:22;;;;;;;1.50;1.30;;;12.90;94.40;;;;;;5062218;28;20040;-69
2022/04/29 01:11:50;;;;;;;2.67;1.88;;;13.00;94.80;;;;;;5064804;28;20500;-69
2022/04/29 01:14:16;;;;;;;2.00;1.60;;;13.00;94.40;;;;;;5065436;28;20374;-69
2022/04/29 01:16:43;;;;;;;5.00;1.73;;;;;;;;;;5062393;28;20051;-69
2022/04/29 01:19:08;;;;;;;1.67;1.50;;;12.50;99.80;;;;;;5063477;28;20043;-69
2022/04/29 01:21:34;;;;;;;3.83;1.83;;;12.20;95.60;;;;;;5063752;28;20033;-68
2022/04/29 01:24:00;;;;;;;1.90;1.67;;;12.40;95.10;;;;;;5062144;28;20143;-68
2022/04/29 01:26:26;;;;;;;2.03;1.55;;;12.20;95.70;;;;;;5063907;28;20070;-68
2022/04/29 01:28:52;;;;;;;1.85;1.38;;;12.20;95.50;;;;;;5066337;28;20050;-68
2022/04/29 01:31:23;;;;;;;3.08;1.65;;;12.10;96.10;;;;;;5067308;28;20068;-68
2022/04/29 01:33:50;;;;;;;5.05;1.60;;;11.70;97.10;;;;;;5062678;28;20075;-69
2022/04/29 01:36:16;;;;;;;2.83;1.83;;;11.50;97.60;;;;;;5062509;28;20420;-69
2022/04/29 01:38:42;;;;;;;1.77;1.55;;;11.40;97.80;;;;;;5065236;28;20037;-69
2022/04/29 01:41:08;;;;;;;2.42;1.63;;;11.50;97.90;;;;;;5062149;28;20044;-69
2022/04/29 01:43:35;;;;;;;2.42;1.42;;;11.60;97.80;;;;;;5062514;28;20036;-69
2022/04/29 01:46:02;;;;;;;1.80;1.25;;;11.70;97.70;;;;;;5070174;28;20048;-69
2022/04/29 01:48:28;;;;;;;3.15;1.70;;;11.80;97.20;;;;;;5073881;28;20039;-70
2022/04/29 01:50:55;;;;;;;5.70;1.63;;;12.00;96.70;;;;;;5074011;28;20439;-69
2022/04/29 01:53:21;;;;;;;2.10;1.60;;;12.00;96.70;;;;;;5073986;28;20044;-68
2022/04/29 01:55:47;;;;;;;2.33;1.55;;;12.40;95.70;;;;;;5073832;28;20531;-68
2022/04/29 01:58:13;;;;;;;3.22;1.80;;;12.50;96.10;;;;;;5073705;28;20041;-68
2022/04/29 02:00:39;;;;;;;1.65;1.55;;;12.40;96.00;;;;;;5073630;28;20068;-69
2022/04/29 02:03:05;;;;;;;1.90;1.42;;;12.10;96.50;;;;;;5073441;28;20071;-69
2022/04/29 02:05:31;;;;;;;2.10;1.58;;;12.20;97.10;;;;;;5073405;28;20500;-69
2022/04/29 02:08:00;;;;;;;2.15;1.55;;;12.30;95.90;;;;;;5072698;28;20055;-69
2022/04/29 02:10:26;;;;;;;1.73;1.50;;;11.90;97.00;;;;;;5073788;28;20037;-69
2022/04/29 02:12:52;;;;;;;2.00;1.42;;;11.70;97.10;;;;;;5073498;28;20044;-69
2022/04/29 02:15:20;;;;;;;1.92;1.67;;;11.90;96.40;;;;;;5073227;28;20044;-69
2022/04/29 02:17:46;;;;;;;2.10;1.60;;;12.20;96.10;;;;;;5073359;28;20029;-69
2022/04/29 02:20:12;;;;;;;2.55;1.90;;;12.00;96.70;;;;;;5073179;28;20042;-69
2022/04/29 02:22:39;;;;;;;2.50;1.92;;;12.30;98.00;;;;;;5073385;28;20051;-69
2022/04/29 02:25:06;;;;;;;1.55;1.40;;;12.40;95.70;;;;;;5073358;28;20127;-69
2022/04/29 02:27:31;;;;;;;3.05;1.85;;;12.50;95.30;;;;;;5073302;28;20172;-68
2022/04/29 02:29:57;;;;;;;2.70;1.60;;;12.60;94.90;;;;;;5073449;28;20048;-69
2022/04/29 02:32:24;;;;;;;4.32;1.80;;;12.80;94.90;;;;;;5073519;28;20040;-69
2022/04/29 02:34:50;;;;;;;2.17;1.60;;;12.70;95.30;;;;;;5073192;28;20059;-69
2022/04/29 02:37:16;;;;;;;1.75;1.40;;;12.40;96.30;;;;;;5073175;28;20036;-69
2022/04/29 02:39:42;;;;;;;4.03;1.63;;;11.80;96.30;;;;;;5072944;28;20522;-69
2022/04/29 02:42:08;;;;;;;2.55;1.90;;;11.80;96.50;;;;;;5073076;28;20115;-69
2022/04/29 02:44:34;;;;;;;1.67;1.35;;;11.80;96.90;;;;;;5072826;28;20550;-70
2022/04/29 02:47:09;;;;;;;2.20;1.52;;;;;;;;;;5072977;28;20044;-69
2022/04/29 02:49:35;;;;;;;2.65;1.60;;;;;;;;;;5072947;28;20413;-69
2022/04/29 02:52:01;;;;;;;2.83;1.88;;;;;;;;;;5072308;28;20129;-69
2022/04/29 02:54:27;;;;;;;2.00;1.70;;;;;;;;;;5072722;28;20505;-70
2022/04/29 02:56:53;;;;;;;3.88;1.77;;;;;;;;;;5072820;28;20059;-70
2022/04/29 02:59:19;;;;;;;2.40;1.70;;;11.40;99.90;;;;;;5072540;28;20430;-70
2022/04/29 03:01:46;;;;;;;1.40;1.30;;;11.10;98.60;;;;;;5072733;28;20032;-69
2022/04/29 03:04:12;;;;;;;2.10;1.80;;;11.60;97.40;;;;;;5072679;28;20110;-69
2022/04/29 03:06:38;;;;;;;2.42;1.70;;;11.70;97.30;;;;;;5072546;28;20070;-69
2022/04/29 03:09:04;;;;;;;2.45;1.55;;;11.50;97.50;;;;;;5073027;28;20040;-69
2022/04/29 03:11:30;;;;;;;2.35;1.60;;;;;;;;;;5072905;28;20504;-70
2022/04/29 03:13:56;;;;;;;2.67;1.70;;;11.70;96.70;;;;;;5070504;28;20053;-69
2022/04/29 03:16:22;;;;;;;3.30;2.03;;;12.20;96.40;;;;;;5072089;28;20119;-69
2022/04/29 03:18:48;;;;;;;2.70;1.90;;;12.40;95.70;;;;;;5073009;28;20048;-68
2022/04/29 03:21:13;;;;;;;3.67;1.92;;;12.00;97.00;;;;;;5073108;28;20397;-69
2022/04/29 03:23:39;;;;;;;2.85;1.95;;;11.90;96.80;;;;;;5072863;28;20048;-69
2022/04/29 03:26:08;;;;;;;1.80;1.70;;;11.70;99.80;;;;;;5069406;28;20055;-70
2022/04/29 03:28:34;;;;;;;2.35;1.67;;;11.60;99.00;;;;;;5051912;28;20048;-70
2022/04/29 03:31:00;;;;;;;2.83;1.60;;;11.30;97.70;;;;;;5070899;28;20044;-69
2022/04/29 03:33:26;;;;;;;2.70;2.20;;;11.60;97.90;;;;;;5072638;28;20059;-69
2022/04/29 03:35:52;;;;;;;2.75;1.52;;;11.60;98.00;;;;;;5072992;28;20033;-69
2022/04/29 03:38:19;;;;;;;2.75;1.83;;;;;;;;;;5072488;28;20036;-69
2022/04/29 03:40:45;;;;;;;3.22;1.67;;;;;;;;;;5072368;28;20047;-70
2022/04/29 03:43:14;;;;;;;3.28;2.03;;;10.40;99.90;;;;;;5072437;28;20063;-69
2022/04/29 03:45:41;;;;;;;2.03;1.80;;;;;;;;;;5072159;28;20126;-69
2022/04/29 03:48:07;;;;;;;4.47;2.03;;;10.40;99.90;;;;;;5072331;28;20518;-68
2022/04/29 03:50:33;;;;;;;2.17;1.77;;;10.80;99.90;;;;;;5072404;28;20040;-68
2022/04/29 03:53:01;;;;;;;2.50;1.90;;;11.00;99.90;;;;;;5072208;28;20079;-69
2022/04/29 03:55:32;;;;;;;1.55;1.45;;;11.00;99.90;;;;;;5072096;28;20047;-68
2022/04/29 03:58:01;;;;;;;5.75;1.77;;;11.20;99.90;;;;;;5072050;28;20136;-68
2022/04/29 04:00:32;;;;;;;6.35;1.90;;;11.10;99.90;;;;;;5072614;28;20033;-69
2022/04/29 04:02:59;;;;;;;2.63;1.80;;;10.90;99.90;;;;;;5072381;28;20581;-69
2022/04/29 04:05:25;;;;;;;2.45;1.77;;;11.00;99.90;;;;;;5075513;28;20070;-69
2022/04/29 04:07:51;;;;;;;2.30;1.80;;;11.30;99.90;;;;;;5075780;28;20082;-69
2022/04/29 04:10:17;;;;;;;3.78;1.70;;;11.30;99.90;;;;;;5076109;28;20753;-69
2022/04/29 04:12:49;;;;;;;2.33;1.60;;;11.50;98.70;;;;;;5076015;28;20051;-69
2022/04/29 04:15:19;;;;;;;2.35;1.77;;;11.10;99.60;;;;;;5075871;28;20123;-68
2022/04/29 04:17:46;;;;;;;2.92;1.70;;;10.80;99.90;;;;;;5075911;28;20033;-68
2022/04/29 04:20:14;;;;;;;5.45;2.22;;;10.90;99.90;;;;;;5075825;28;20079;-68
2022/04/29 04:22:40;;;;;;;3.05;1.88;;;11.00;99.90;;;;;;5075690;28;20063;-69
2022/04/29 04:25:08;;;;;;;1.80;1.67;;;10.90;99.90;;;;;;5075308;28;20036;-69
2022/04/29 04:27:34;;;;;;;3.42;1.65;;;10.90;99.90;;;;;;5075378;28;20051;-69
2022/04/29 04:30:01;;;;;;;1.90;1.67;;;11.10;99.90;;;;;;5075558;28;20024;-69
2022/04/29 04:32:33;;;;;;;3.35;1.83;;;10.90;99.90;;;;;;5075555;28;20044;-69
2022/04/29 04:35:00;;;;;;;4.22;2.08;;;10.90;99.90;;;;;;5075198;28;20032;-69
2022/04/29 04:37:27;;;;;;;2.47;2.10;;;10.40;99.90;;;;;;5075135;28;20039;-69
2022/04/29 04:39:53;;;;;;;5.05;2.13;;;;;;;;;;5075220;28;20127;-69
2022/04/29 04:42:19;;;;;;;3.03;2.20;;;;;;;;;;5075007;28;20408;-69
2022/04/29 04:44:49;;;;;;;5.03;2.05;;;10.30;99.90;;;;;;5075429;28;20056;-69
2022/04/29 04:47:15;;;;;;;3.30;2.55;;;10.40;99.90;;;;;;5075373;28;20048;-69
2022/04/29 04:49:42;;;;;;;3.42;2.22;;;10.50;99.90;;;;;;5075074;28;20040;-68
2022/04/29 04:52:08;;;;;;;2.50;1.90;;;10.40;99.90;;;;;;5075295;28;20530;-68
2022/04/29 04:54:35;;;;;;;4.00;1.90;;;10.40;99.90;;;;;;5074809;28;20036;-68
2022/04/29 04:57:01;;;;;;;4.80;1.90;;;10.40;99.90;;;;;;5074829;28;20024;-68
2022/04/29 04:59:27;;;;;;;2.60;1.95;;;10.40;99.90;;;;;;5074979;28;20048;-69
2022/04/29 05:01:53;;;;;;;5.97;2.13;;;10.60;99.90;;;;;;5074846;28;20037;-69
2022/04/29 05:04:20;;;;;;;3.38;2.22;;;10.70;99.90;;;;;;5075078;28;20036;-68
2022/04/29 05:06:45;;;;;;;3.15;1.90;;;10.80;99.90;;;;;;5074932;28;20056;-68
2022/04/29 05:09:11;;;;;;;3.67;2.00;;;10.90;99.90;;;;;;5074752;28;20126;-68
2022/04/29 05:11:37;;;;;;;2.67;1.88;;;11.00;99.90;;;;;;5063653;28;20047;-69
2022/04/29 05:14:03;;;;;;;2.97;2.17;;;10.90;99.90;;;;;;5054694;28;20044;-69
2022/04/29 05:16:29;;;;;;;4.95;1.95;;;10.90;99.90;;;;;;5053889;28;20048;-69
2022/04/29 05:18:55;;;;;;;3.00;2.05;;;11.20;99.90;;;;;;5054286;28;20029;-69
2022/04/29 05:21:21;;;;;;;2.72;1.83;;;11.20;99.90;;;;;;5054518;28;20045;-69
2022/04/29 05:23:47;;;;;;;2.53;2.10;;;11.30;99.90;;;;;;5054297;28;20037;-69
2022/04/29 05:26:12;;;;;;;8.93;1.90;;;11.50;99.90;;;;;;5054145;28;20131;-69
2022/04/29 05:28:38;;;;;;;4.43;2.00;;;11.20;99.90;;;;;;5054410;28;20131;-69
2022/04/29 05:31:04;;;;;;;2.40;1.73;;;11.10;99.90;;;;;;5054537;28;20050;-69
2022/04/29 05:33:33;;;;;;;2.47;1.83;;;11.40;99.90;;;;;;5053388;28;20052;-69
2022/04/29 05:35:59;;;;;;;2.38;1.63;;;11.20;99.90;;;;;;5056517;28;20082;-69
2022/04/29 05:42:14;;;;;;;2.72;1.80;;;11.50;99.90;;;;;;5053197;28;20041;-70
2022/04/29 05:44:00;;;;;;;4.35;1.85;;;11.90;99.90;;;;;;5054217;28;20044;-69
2022/04/29 05:46:26;;;;;;;4.75;2.25;;;12.00;99.90;;;;;;5054161;28;20186;-69
2022/04/29 05:48:52;;;;;;;2.80;1.85;;;12.00;99.90;;;;;;5054310;28;20029;-68
2022/04/29 05:51:18;;;;;;;2.13;1.83;;;12.00;99.90;;;;;;5054107;28;20566;-70
2022/04/29 05:53:43;;;;;;;5.13;1.67;;;12.00;99.90;;;;;;5054127;28;20123;-69
2022/04/29 05:56:10;;;;;;;5.93;2.15;;;12.30;99.90;;;;;;5054030;28;20045;-69
2022/04/29 05:58:35;;;;;;;5.03;2.08;;;12.50;99.90;;;;;;5053898;28;20041;-69
2022/04/29 06:01:02;;;;;;;5.20;2.10;;;12.80;99.90;;;;;;5053904;28;20450;-69
2022/04/29 06:03:28;;;;;;;2.42;1.80;;;12.70;99.90;;;;;;5053834;28;20068;-69
2022/04/29 06:05:53;;;;;;;2.95;1.92;;;12.20;99.90;;;;;;5053519;28;20496;-69
2022/04/29 06:08:19;;;;;;;4.00;2.05;;;12.10;99.90;;;;;;5053703;28;20037;-69
2022/04/29 06:10:45;;;;;;;2.72;1.98;;;12.20;99.90;;;;;;5053692;28;20032;-69
2022/04/29 06:13:11;;;;;;;3.20;1.75;;;12.40;99.90;;;;;;5053690;28;20037;-69
2022/04/29 06:15:36;;;;;;;6.63;2.17;;;12.60;99.90;;;;;;5053564;28;20041;-70
2022/04/29 06:18:03;;;;;;;3.65;1.95;;;12.90;99.90;;;;;;5053588;28;20041;-69
2022/04/29 06:20:32;;;;;;;4.60;1.90;;;12.80;99.90;;;;;;5053589;28;20045;-70
2022/04/29 06:22:58;;;;;;;2.95;2.05;;;13.00;99.90;;;;;;5036267;28;20123;-70
2022/04/29 06:25:24;;;;;;;5.57;2.50;;;12.40;99.90;;;;;;5053280;28;20112;-69
2022/04/29 06:27:50;;;;;;;2.83;2.03;;;12.20;99.90;;;;;;5053347;28;20044;-69
2022/04/29 06:30:16;;;;;;;2.92;2.35;;;12.10;99.90;;;;;;5053151;28;20116;-69
2022/04/29 06:32:42;;;;;;;7.95;2.45;;;12.00;99.90;;;;;;5053240;28;20049;-69
2022/04/29 06:35:09;;;;;;;3.28;2.40;;;12.10;99.90;;;;;;5053301;28;20125;-69
2022/04/29 06:37:35;;;;;;;4.88;2.47;;;12.20;99.90;;;;;;5053228;28;20085;-69
2022/04/29 06:40:02;;;;;;;2.78;2.15;;;12.40;99.90;;;;;;5053174;28;20049;-70
2022/04/29 06:42:28;;;;;;;4.07;2.60;;;;;;;;;;5053118;28;20032;-70
2022/04/29 06:44:54;;;;;;;2.80;2.40;;;12.70;99.90;;;;;;5052995;28;20071;-69
2022/04/29 06:47:20;;;;;;;3.75;2.60;;;12.70;99.90;;;;;;5052898;28;20052;-69
2022/04/29 06:49:46;;;;;;;4.78;2.72;;;12.70;99.90;;;;;;5052930;28;20049;-69
2022/04/29 06:52:12;;;;;;;6.00;2.85;;;12.80;99.90;;;;;;5052833;28;20047;-69
2022/04/29 06:54:37;;;;;;;5.63;4.50;;;12.80;99.90;;;;;;5052900;28;20127;-70
2022/04/29 06:57:04;;;;;;;4.47;3.10;;;12.90;99.90;;;;;;5053049;28;20037;-70
2022/04/29 06:59:29;;;;;;;5.65;3.25;;;13.20;99.90;;;;;;5055979;28;20048;-69
2022/04/29 07:01:55;;;;;;;5.10;3.00;;;13.50;99.90;;;;;;5073004;28;20032;-69
2022/04/29 07:04:24;;;;;;;4.43;3.00;;;13.40;99.90;;;;;;5072569;28;20090;-70
2022/04/29 07:06:54;;;;;;;4.35;3.17;;;13.70;99.90;;;;;;5069292;28;20524;-70
2022/04/29 07:09:20;;;;;;;4.60;3.50;;;14.30;99.90;;;;;;5072743;28;20127;-70
2022/04/29 07:11:45;;;;;;;6.45;3.78;;;14.80;99.90;;;;;;5072866;28;20576;-70
2022/04/29 07:14:12;;;;;;;4.88;3.03;;;15.10;99.90;;;;;;5072711;28;20535;-70
2022/04/29 07:16:38;;;;;;;3.85;2.60;;;14.90;99.90;;;;;;5072715;28;20055;-70
2022/04/29 07:19:03;;;;;;;6.25;2.80;;;14.90;99.90;;;;;;5072752;28;20020;-70
2022/04/29 07:21:29;;;;;;;3.70;2.60;;;15.10;99.90;;;;;;5072840;28;20040;-70
2022/04/29 07:23:55;;;;;;;2.80;2.28;;;15.40;99.90;;;;;;5072580;28;20059;-70
2022/04/29 07:26:21;;;;;;;4.07;2.55;;;15.40;99.90;;;;;;5072482;28;20053;-70
2022/04/29 07:28:47;;;;;;;5.15;2.92;;;15.70;99.90;;;;;;5071927;28;20043;-70
2022/04/29 07:31:13;;;;;;;5.03;2.72;;;15.70;99.90;;;;;;5061628;28;20090;-70
2022/04/29 07:33:38;;;;;;;4.30;2.88;;;16.40;99.90;;;;;;5070283;28;20068;-70
2022/04/29 07:41:45;;;;;;;4.80;2.40;;;17.00;98.60;;;;;;5076642;28;20081;-70
2022/04/29 07:44:12;;;;;;;4.15;2.47;;;17.30;99.00;;;;;;5076331;28;20127;-70
2022/04/29 07:46:38;;;;;;;5.53;2.58;;;17.40;98.00;;;;;;5076229;28;20131;-70
2022/04/29 07:49:05;;;;;;;3.67;2.60;;;17.60;99.90;;;;;;5076374;28;20048;-70
2022/04/29 07:51:31;;;;;;;4.43;2.15;;;17.60;98.80;;;;;;5069861;28;20052;-70
2022/04/29 07:54:00;;;;;;;2.83;2.35;;;17.90;99.80;;;;;;5061068;28;20044;-69
2022/04/29 07:56:26;;;;;;;3.33;2.20;;;18.10;98.60;;;;;;5074308;28;20572;-69
2022/04/29 07:58:52;;;;;;;3.00;2.60;;;18.30;97.20;;;;;;5071576;28;20500;-69
2022/04/29 08:01:18;;;;;;;3.45;2.83;;;18.50;98.30;;;;;;5070693;28;20028;-69
2022/04/29 08:03:44;;;;;;;4.45;2.60;;;18.60;98.10;;;;;;5073743;28;20064;-69
2022/04/29 08:06:11;;;;;;;7.80;2.38;;;18.60;97.40;;;;;;5073126;28;20102;-69
2022/04/29 08:08:37;;;;;;;4.47;2.80;;;18.50;99.10;;;;;;5073510;28;20439;-69
2022/04/29 08:11:07;;;;;;;5.43;2.35;;;18.60;98.60;;;;;;5073915;28;20044;-69
2022/04/29 08:13:34;;;;;;;8.25;2.90;;;18.80;98.40;;;;;;5073803;28;20045;-69
2022/04/29 08:16:00;;;;;;;3.50;2.70;;;19.20;98.40;;;;;;5073227;28;20032;-70
2022/04/29 08:18:28;;;;;;;3.28;2.50;;;19.00;96.80;;;;;;5074589;28;20076;-70
2022/04/29 08:20:56;;;;;;;4.20;2.60;;;18.80;97.40;;;;;;5074000;28;20064;-70
2022/04/29 08:23:22;;;;;;;6.38;2.80;;;18.40;97.20;;;;;;5073107;28;20041;-70
2022/04/29 08:25:48;;;;;;;4.38;2.40;;;18.60;97.20;;;;;;5073043;28;20036;-69
2022/04/29 08:28:13;;;;;;;3.03;2.50;;;18.70;97.60;;;;;;5073253;28;20068;-69
2022/04/29 08:30:39;;;;;;;4.70;2.67;;;18.70;97.00;;;;;;5055632;28;20064;-70
2022/04/29 08:33:12;;;;;;;6.60;2.75;;;18.60;96.60;;;;;;5073502;28;20047;-69
2022/04/29 08:35:38;;;;;;;6.30;3.13;;;18.60;98.10;;;;;;5073494;28;20068;-69
2022/04/29 08:38:04;;;;;;;19.30;3.08;;;18.20;97.60;;;;;;5071615;28;20036;-69
2022/04/29 08:40:31;;;;;;;5.47;3.00;;;18.10;98.00;;;;;;5055638;28;20036;-69
2022/04/29 08:42:58;;;;;;;5.88;3.38;;;18.10;97.50;;;;;;5071477;28;20037;-69
2022/04/29 08:45:28;;;;;;;5.70;2.30;;;18.30;96.70;;;;;;5072041;28;20056;-69
2022/04/29 08:47:55;;;;;;;3.25;2.50;;;18.40;97.00;;;;;;5070659;28;20063;-70
2022/04/29 08:50:26;;;;;;;4.45;2.45;;;18.60;97.00;;;;;;5056062;28;20037;-70
2022/04/29 08:52:55;;;;;;;9.15;2.20;;;18.60;97.80;;;;;;5072306;28;20032;-70
2022/04/29 09:01:06;;;;;;;5.82;3.20;;;18.90;96.60;;;;;;5057986;28;20086;-70
2022/04/29 09:03:32;;;;;;;6.88;2.60;;;19.30;98.30;;;;;;5069255;28;20047;-70
2022/04/29 09:05:58;;;;;;;7.00;4.05;;;19.60;96.90;;;;;;5068929;28;20048;-70
2022/04/29 09:08:25;;;;;;;8.45;4.18;;;19.60;96.50;;;;;;5064516;28;20068;-70
2022/04/29 09:10:54;;;;;;;3.13;2.70;;;19.80;96.00;;;;;;5070298;28;20435;-70
2022/04/29 09:13:25;;;;;;;7.05;3.13;;;19.70;96.20;;;;;;5074745;28;20041;-70
2022/04/29 09:15:58;;;;;;;4.15;2.80;;;19.90;97.50;;;;;;5073541;28;20048;-70
2022/04/29 09:18:37;;;;;;;4.90;2.75;;;19.90;95.90;;;;;;5058217;28;20071;-70
2022/04/29 09:21:16;;;;;;;4.45;2.63;;;20.00;96.20;;;;;;5070592;28;20054;-70
2022/04/29 09:23:55;;;;;;;10.65;2.70;;;19.90;95.80;;;;;;5072813;28;20047;-70
2022/04/29 09:26:35;;;;;;;2.65;2.30;;;19.80;95.60;;;;;;5072760;28;20056;-70
2022/04/29 09:29:21;;;;;;;6.97;2.53;;;19.60;96.10;;;;;;5072733;28;20075;-70
2022/04/29 09:31:58;;;;;;;3.70;2.35;;;19.40;95.70;;;;;;5074634;28;20044;-70
2022/04/29 09:34:58;;;;;;;4.55;2.47;;;19.50;96.20;;;;;;5073049;28;20037;-70
2022/04/29 09:37:26;;;;;;;7.22;2.42;;;19.80;95.80;;;;;;5016892;28;20058;-70
2022/04/29 09:40:00;;;;;;;3.40;2.95;;;19.70;96.40;;;;;;5067993;28;20042;-70
2022/04/29 09:42:40;;;;;;;3.47;2.20;;;19.70;96.60;;;;;;5056365;28;20044;-70
2022/04/29 09:45:24;;;;;;;5.32;2.95;;;20.10;95.80;;;;;;5061817;28;20040;-70
2022/04/29 09:47:56;;;;;;;4.25;2.28;;;20.20;94.10;;;;;;5070364;28;20052;-69
2022/04/29 09:50:42;;;;;;;3.40;2.60;;;20.40;94.60;;;;;;5062731;28;20059;-69
2022/04/29 09:53:24;;;;;;;4.43;1.80;;;20.70;96.10;;;;;;5051717;28;20041;-70
2022/04/29 09:56:12;;;;;;;5.43;2.25;;;20.80;94.50;;;;;;5071277;28;20127;-70
2022/04/29 09:58:42;;;;;;;3.63;2.45;;;20.60;95.60;;;;;;5073345;28;20051;-70
2022/04/29 10:01:10;;;;;;;3.67;2.33;;;20.60;94.60;;;;;;5066185;28;20032;-70
2022/04/29 10:03:37;;;;;;;4.65;2.20;;;20.30;93.60;;;;;;5057443;28;20040;-70
2022/04/29 10:06:04;;;;;;;3.20;2.30;;;20.10;95.40;;;;;;5062271;28;20056;-70
2022/04/29 10:08:31;;;;;;;3.83;1.90;;;20.20;94.10;;;;;;5065140;28;20029;-70
2022/04/29 10:10:58;;;;;;;10.50;2.35;;;20.10;94.00;;;;;;5069687;28;20039;-70
2022/04/29 10:13:26;;;;;;;4.18;2.42;;;20.00;94.10;;;;;;5060910;28;20086;-70
2022/04/29 10:15:53;;;;;;;2.97;2.03;;;20.10;94.40;;;;;;5054082;28;20083;-71
2022/04/29 10:21:15;;;;;;;3.08;1.95;;;19.40;92.40;;;;;;5062383;28;20040;-71
2022/04/29 10:23:48;;;;;;;4.45;2.25;;;19.50;90.90;;;;;;5063388;28;20040;-70
2022/04/29 10:26:18;;;;;;;2.88;2.53;;;19.40;91.00;;;;;;5056333;28;20500;-71
2022/04/29 10:28:45;;;;;;;6.45;2.60;;;19.70;92.40;;;;;;5058621;28;20040;-70
2022/04/29 10:31:22;;;;;;;3.65;2.15;;;19.40;91.80;;;;;;5064395;28;20094;-69
2022/04/29 10:33:49;;;;;;;4.30;2.28;;;19.20;91.60;;;;;;5065409;28;20055;-70
2022/04/29 10:36:22;;;;;;;3.95;2.28;;;19.40;91.60;;;;;;5035533;28;20036;-69
2022/04/29 10:38:48;;;;;;;5.75;2.22;;;20.00;91.50;;;;;;5051248;28;20033;-69
2022/04/29 10:41:21;;;;;;;5.15;1.92;;;20.40;92.00;;;;;;5050387;28;20473;-69
2022/04/29 10:43:53;;;;;;;3.97;2.30;;;20.30;91.80;;;;;;5051083;28;20037;-70
2022/04/29 10:46:36;;;;;;;2.45;2.15;;;20.10;91.80;;;;;;5058445;28;20047;-70
2022/04/29 10:49:26;;;;;;;3.88;2.15;;;20.00;91.60;;;;;;5061796;28;20037;-70
2022/04/29 10:51:53;;;;;;;3.40;2.47;;;20.30;92.40;;;;;;5050459;28;20070;-69
2022/04/29 10:54:34;;;;;;;3.42;2.33;;;20.30;92.50;;;;;;5051212;28;20041;-70
2022/04/29 10:57:04;;;;;;;3.30;2.60;;;20.00;91.60;;;;;;5050997;28;20033;-70
2022/04/29 10:59:52;;;;;;;6.40;2.92;;;20.20;91.50;;;;;;5038382;28;20076;-69
2022/04/29 11:02:29;;;;;;;6.55;2.90;;;19.80;92.60;;;;;;5022795;28;20044;-70
2022/04/29 11:04:56;;;;;;;7.35;2.90;;;20.20;91.50;;;;;;5062763;28;20059;-70
2022/04/29 11:07:38;;;;;;;4.47;2.85;;;20.20;91.00;;;;;;5064205;28;20052;-71
2022/04/29 11:10:25;;;;;;;4.40;2.78;;;20.20;92.40;;;;;;5059620;28;20044;-69
2022/04/29 11:13:03;;;;;;;6.35;2.97;;;20.10;91.10;;;;;;5056924;28;20072;-69
2022/04/29 11:15:49;;;;;;;4.70;2.50;;;20.10;90.40;;;;;;5060749;28;20063;-70
2022/04/29 11:18:19;;;;;;;4.50;2.45;;;20.10;91.70;;;;;;5061696;28;20048;-70
2022/04/29 11:20:47;;;;;;;3.70;2.50;;;20.20;91.40;;;;;;5058897;28;20044;-70
2022/04/29 11:26:10;;;;;;;6.75;2.47;;;20.30;91.30;;;;;;5059769;28;20040;-70
2022/04/29 11:28:36;;;;;;;4.53;2.80;;;20.50;92.20;;;;;;5059170;28;20074;-69
2022/04/29 11:31:04;;;;;;;4.10;2.75;;;20.40;91.20;;;;;;5068851;28;20147;-70
2022/04/29 11:33:30;;;;;;;3.47;2.38;;;20.00;91.60;;;;;;5070119;28;20076;-72
2022/04/29 11:36:12;;;;;;;3.42;2.17;;;19.90;91.70;;;;;;5067927;28;20146;-71
2022/04/29 11:38:46;;;;;;;7.68;2.55;;;20.20;90.20;;;;;;5069626;28;20040;-72
2022/04/29 11:41:21;;;;;;;5.45;2.58;;;20.30;90.50;;;;;;5069831;28;20043;-71
2022/04/29 11:43:48;;;;;;;3.03;2.17;;;20.20;91.40;;;;;;5066048;28;20044;-71
2022/04/29 11:46:15;;;;;;;2.88;2.47;;;20.40;90.30;;;;;;5070354;28;20131;-71
2022/04/29 11:48:58;;;;;;;4.00;2.50;;;20.00;89.00;;;;;;5070450;28;20045;-72
2022/04/29 11:51:28;;;;;;;5.57;2.40;;;20.50;92.20;;;;;;5070797;28;20055;-71
2022/04/29 11:54:04;;;;;;;6.95;2.15;;;20.80;90.90;;;;;;5072539;28;20048;-72
2022/04/29 11:56:38;;;;;;;3.05;2.38;;;20.30;90.20;;;;;;5070880;28;20029;-72
2022/04/29 11:59:07;;;;;;;3.33;2.50;;;20.50;90.80;;;;;;5070545;28;20041;-71
2022/04/29 12:01:34;;;;;;;2.83;2.10;;;20.20;90.50;;;;;;5072046;28;20515;-72
2022/04/29 12:04:00;;;;;;;2.75;2.15;;;20.00;90.60;;;;;;5070363;28;20040;-71
2022/04/29 12:06:26;;;;;;;5.90;2.42;;;19.90;89.70;;;;;;5070070;28;20411;-72
2022/04/29 12:08:53;;;;;;;3.20;2.55;;;19.90;90.90;;;;;;5070463;28;20037;-71
2022/04/29 12:11:30;;;;;;;4.47;2.47;;;19.40;90.60;;;;;;5070489;28;20131;-71
2022/04/29 12:13:57;;;;;;;5.43;2.78;;;19.30;91.30;;;;;;5071565;28;20037;-71
2022/04/29 12:16:23;;;;;;;5.30;2.70;;;19.50;90.60;;;;;;5070208;28;20583;-72
2022/04/29 12:18:50;;;;;;;5.00;2.50;;;19.70;89.70;;;;;;5068932;28;20075;-70
2022/04/29 12:21:25;;;;;;;10.30;3.22;;;19.80;90.50;;;;;;5071294;28;20400;-71
2022/04/29 12:23:54;;;;;;;10.30;3.08;;;20.00;90.50;;;;;;5071338;28;20072;-71
2022/04/29 12:26:20;;;;;;;4.18;2.55;;;20.20;91.10;;;;;;5072917;28;20416;-71
2022/04/29 12:28:56;;;;;;;3.65;2.72;;;20.20;90.30;;;;;;5073456;28;20032;-71
2022/04/29 12:36:58;;;;;;;3.88;2.40;;;20.30;90.20;;;;;;5073585;28;20435;-72
2022/04/29 12:39:26;;;;;;;3.70;2.80;;;20.20;91.00;;;;;;5073966;28;20037;-71
2022/04/29 12:41:59;;;;;;;4.75;2.38;;;20.10;90.40;;;;;;5074626;28;20029;-72
2022/04/29 12:47:25;;;;;;;5.95;3.03;;;20.10;91.70;;;;;;5072813;28;20133;-71
2022/04/29 12:49:51;;;;;;;8.57;2.45;;;19.70;88.60;;;;;;5073026;28;20518;-71
2022/04/29 12:52:17;;;;;;;4.32;2.53;;;19.80;90.90;;;;;;5073373;28;20035;-72
2022/04/29 12:54:43;;;;;;;5.18;2.65;;;19.90;90.20;;;;;;5073539;28;20048;-71
2022/04/29 12:57:09;;;;;;;4.97;2.70;;;19.90;90.00;;;;;;5073324;28;20119;-71
2022/04/29 12:59:38;;;;;;;5.55;3.25;;;19.60;90.00;;;;;;5073730;28;20119;-71
2022/04/29 13:02:05;;;;;;;2.67;2.33;;;19.70;90.10;;;;;;5072947;28;20036;-71
2022/04/29 13:04:31;;;;;;;13.45;3.10;;;19.50;87.60;;;;;;5073571;28;20119;-71
2022/04/29 13:06:57;;;;;;;8.15;3.38;;;19.70;90.30;;;;;;5073864;28;20515;-71
2022/04/29 13:09:25;;;;;;;6.90;2.47;;;20.00;87.90;;;;;;5073108;28;20075;-71
2022/04/29 13:11:52;;;;;;;4.22;2.15;;;20.00;86.70;;;;;;5072804;28;20048;-71
2022/04/29 13:14:18;;;;;;;4.60;2.53;;;20.00;89.20;;;;;;5073149;28;20043;-71
2022/04/29 13:16:44;;;;;;;2.83;2.28;;;19.90;87.90;;;;;;5073134;28;20418;-71
2022/04/29 13:19:13;;;;;;;5.60;2.58;;;20.00;87.20;;;;;;5057568;28;20098;-71
2022/04/29 13:21:39;;;;;;;3.58;2.50;;;20.30;87.80;;;;;;5053408;28;20444;-71
2022/04/29 13:24:07;;;;;;;5.45;2.65;;;20.40;88.10;;;;;;5052976;28;20450;-71